createdAt,value
2024-05-09T00:00:51.061Z,103120.44
2024-05-09T00:03:41.052Z,103124.41
2024-05-09T00:06:28.148Z,103122.53
2024-05-09T00:09:15.296Z,103124.16
2024-05-09T00:12:02.511Z,103116.19
2024-05-09T00:14:49.689Z,103121.50
2024-05-09T00:17:36.823Z,103115.97
2024-05-09T00:20:28.625Z,103118.03
2024-05-09T00:23:23.533Z,103110.25
2024-05-09T00:26:10.804Z,103115.94
2024-05-09T00:28:58.014Z,103114.13
2024-05-09T00:31:45.153Z,103113.06
2024-05-09T00:34:32.319Z,103110.13
2024-05-09T00:37:19.615Z,103107.75
2024-05-09T00:40:09.614Z,103104.66
2024-05-09T00:43:02.297Z,103104.13
2024-05-09T00:45:49.468Z,103102.44
2024-05-09T00:48:36.814Z,103094.28
2024-05-09T00:51:24.201Z,103101.47
2024-05-09T00:54:11.393Z,103094.84
2024-05-09T00:56:58.884Z,103094.72
2024-05-09T00:59:46.843Z,103097.44
2024-05-09T01:02:34.048Z,103092.91
2024-05-09T01:05:21.233Z,103104.56
2024-05-09T01:08:09.831Z,103101.16
2024-05-09T01:10:57.278Z,103090.66
2024-05-09T01:13:47.517Z,103087.13
2024-05-09T01:16:34.816Z,103091.78
2024-05-09T01:19:29.660Z,103083.13
2024-05-09T01:22:16.989Z,103088.31
2024-05-09T01:25:04.344Z,103089.31
2024-05-09T01:27:51.376Z,103085.84
2024-05-09T01:30:38.880Z,103088.72
2024-05-09T01:33:29.284Z,103081.03
2024-05-09T01:36:18.690Z,103087.25
2024-05-09T01:39:05.956Z,103090.56
2024-05-09T01:41:53.108Z,103088.16
2024-05-09T01:44:40.312Z,103075.97
2024-05-09T01:47:27.568Z,103077.78
2024-05-09T01:53:03.481Z,103076.34
2024-05-09T01:55:50.627Z,103080.59
2024-05-09T01:58:37.772Z,103073.72
2024-05-09T02:01:25.016Z,103075.78
2024-05-09T02:04:12.385Z,103082.72
2024-05-09T02:07:01.844Z,103076.81
2024-05-09T02:09:51.919Z,103075.59
2024-05-09T02:12:39.871Z,103075.19
2024-05-09T02:15:26.966Z,103073.28
2024-05-09T02:18:14.463Z,103066.53
2024-05-09T02:21:01.816Z,103070.81
2024-05-09T02:23:49.094Z,103069.75
2024-05-09T02:26:36.207Z,103068.09
2024-05-09T02:29:23.369Z,103068.28
2024-05-09T02:32:10.569Z,103077.25
2024-05-09T02:34:57.833Z,103080.09
2024-05-09T02:37:44.949Z,103068.59
2024-05-09T02:40:37.228Z,103071.25
2024-05-09T02:43:28.650Z,103074.22
2024-05-09T02:46:15.776Z,103074.59
2024-05-09T02:49:03.024Z,103076.56
2024-05-09T02:51:50.104Z,103073.09
2024-05-09T02:54:37.197Z,103074.50
2024-05-09T02:57:24.289Z,103072.09
2024-05-09T03:00:18.523Z,103086.53
2024-05-09T03:03:14.919Z,103077.53
2024-05-09T03:06:02.876Z,103073.81
2024-05-09T03:08:49.940Z,103068.03
2024-05-09T03:12:02.474Z,103065.72
2024-05-09T03:14:50.638Z,103065.59
2024-05-09T03:17:41.235Z,103066.94
2024-05-09T03:20:33.964Z,103062.94
2024-05-09T03:23:22.929Z,103066.75
2024-05-09T03:26:17.486Z,103063.28
2024-05-09T03:29:04.895Z,103062.38
2024-05-09T03:31:52.234Z,103066.63
2024-05-09T03:34:39.622Z,103062.47
2024-05-09T03:37:26.672Z,103070.78
2024-05-09T03:40:20.489Z,103059.47
2024-05-09T03:43:10.660Z,103062.44
2024-05-09T03:45:57.999Z,103063.31
2024-05-09T03:48:45.256Z,103071.50
2024-05-09T03:51:32.462Z,103065.03
2024-05-09T03:54:19.535Z,103064.22
2024-05-09T03:57:06.745Z,103069.69
2024-05-09T03:59:53.862Z,103071.50
2024-05-09T04:02:43.328Z,103071.50
2024-05-09T04:05:31.136Z,103076.19
2024-05-09T04:08:18.500Z,103073.66
2024-05-09T04:11:06.872Z,103069.09
2024-05-09T04:13:54.080Z,103071.81
2024-05-09T04:16:41.288Z,103070.91
2024-05-09T04:19:28.677Z,103076.25
2024-05-09T04:22:15.917Z,103072.72
2024-05-09T04:25:03.007Z,103074.38
2024-05-09T04:27:50.084Z,103077.06
2024-05-09T04:30:40.045Z,103079.84
2024-05-09T04:33:29.828Z,103075.28
2024-05-09T04:36:17.068Z,103074.19
2024-05-09T04:39:04.510Z,103074.19
2024-05-09T04:41:51.539Z,103079.28
2024-05-09T04:44:38.679Z,103080.81
2024-05-09T04:47:26.059Z,103082.88
2024-05-09T04:50:20.796Z,103079.06
2024-05-09T04:53:16.444Z,103083.47
2024-05-09T04:56:03.925Z,103082.34
2024-05-09T04:58:51.160Z,103083.16
2024-05-09T05:01:38.325Z,103081.94
2024-05-09T05:04:25.589Z,103083.78
2024-05-09T05:07:12.672Z,103083.44
2024-05-09T05:09:59.696Z,103093.47
2024-05-09T05:13:05.326Z,103092.13
2024-05-09T05:15:56.461Z,103094.66
2024-05-09T05:18:44.740Z,103073.94
2024-05-09T05:21:31.985Z,103087.69
2024-05-09T05:24:19.055Z,103085.16
2024-05-09T05:27:06.196Z,103091.44
2024-05-09T05:29:53.306Z,103081.66
2024-05-09T05:32:40.494Z,103085.31
2024-05-09T05:35:27.994Z,103082.06
2024-05-09T05:38:15.266Z,103071.59
2024-05-09T05:41:02.576Z,103076.94
2024-05-09T05:43:49.700Z,103077.03
2024-05-09T05:46:36.723Z,103079.00
2024-05-09T05:49:24.003Z,103085.75
2024-05-09T05:52:12.399Z,103074.16
2024-05-09T05:54:59.462Z,103083.00
2024-05-09T05:57:46.536Z,103075.13
2024-05-09T06:00:38.518Z,103079.41
2024-05-09T06:03:29.363Z,103076.81
2024-05-09T06:06:16.654Z,103080.19
2024-05-09T06:09:03.906Z,103072.22
2024-05-09T06:11:51.183Z,103077.09
2024-05-09T06:14:38.513Z,103072.69
2024-05-09T06:17:25.990Z,103070.72
2024-05-09T06:20:20.442Z,103069.72
2024-05-09T06:23:12.503Z,103066.97
2024-05-09T06:26:00.004Z,103062.63
2024-05-09T06:28:47.135Z,103069.09
2024-05-09T06:31:42.524Z,103069.00
2024-05-09T06:34:29.898Z,103062.03
2024-05-09T06:37:16.981Z,103076.31
2024-05-09T06:40:05.573Z,103067.28
2024-05-09T06:42:55.978Z,103069.38
2024-05-09T06:45:43.147Z,103064.78
2024-05-09T06:48:30.433Z,103065.16
2024-05-09T06:51:17.645Z,103059.19
2024-05-09T06:54:07.553Z,103056.06
2024-05-09T06:56:54.629Z,103060.88
2024-05-09T06:59:41.734Z,103056.19
2024-05-09T07:02:28.955Z,103057.72
2024-05-09T07:05:16.491Z,103059.44
2024-05-09T07:08:04.814Z,103049.53
2024-05-09T07:10:52.086Z,103053.06
2024-05-09T07:13:39.348Z,103042.53
2024-05-09T07:16:26.467Z,103040.03
2024-05-09T07:19:13.758Z,103038.56
2024-05-09T07:22:00.911Z,103041.25
2024-05-09T07:24:47.993Z,103041.00
2024-05-09T07:27:35.161Z,103043.50
2024-05-09T07:30:27.747Z,103042.09
2024-05-09T07:33:22.920Z,103039.50
2024-05-09T07:36:11.144Z,103042.25
2024-05-09T07:38:58.818Z,103032.63
2024-05-09T07:41:45.978Z,103037.31
2024-05-09T07:44:33.568Z,103032.28
2024-05-09T07:48:32.061Z,103036.28
2024-05-09T07:53:38.314Z,103031.13
2024-05-09T07:56:26.047Z,103050.19
2024-05-09T07:59:13.618Z,103049.72
2024-05-09T08:02:00.908Z,103053.16
2024-05-09T08:04:48.202Z,103054.09
2024-05-09T08:07:37.173Z,103043.25
2024-05-09T08:10:28.569Z,103045.56
2024-05-09T08:13:16.360Z,103044.41
2024-05-09T08:16:03.847Z,103045.06
2024-05-09T08:18:51.328Z,103037.22
2024-05-09T08:21:38.578Z,103039.81
2024-05-09T08:24:25.655Z,103047.66
2024-05-09T08:27:12.883Z,103047.28
2024-05-09T08:29:59.978Z,103040.34
2024-05-09T08:32:48.337Z,103042.13
2024-05-09T08:35:36.001Z,103040.75
2024-05-09T08:38:23.044Z,103039.16
2024-05-09T08:41:14.036Z,103035.72
2024-05-09T08:44:01.631Z,103043.97
2024-05-09T08:46:51.644Z,103039.53
2024-05-09T08:49:41.350Z,103043.75
2024-05-09T08:52:29.088Z,103039.88
2024-05-09T08:55:16.282Z,103041.97
2024-05-09T08:58:04.311Z,103040.34
2024-05-09T09:00:51.585Z,103042.34
2024-05-09T09:03:39.216Z,103044.22
2024-05-09T09:06:27.374Z,103047.03
2024-05-09T09:09:14.601Z,103039.47
2024-05-09T09:12:01.690Z,103050.03
2024-05-09T09:14:48.811Z,103043.66
2024-05-09T09:17:39.246Z,103038.19
2024-05-09T09:20:34.151Z,103039.00
2024-05-09T09:23:24.083Z,103038.81
2024-05-09T09:26:15.989Z,103044.97
2024-05-09T09:29:03.183Z,103039.81
2024-05-09T09:31:59.720Z,103043.88
2024-05-09T09:34:47.901Z,103029.06
2024-05-09T09:37:37.944Z,103027.91
2024-05-09T09:40:32.259Z,103024.66
2024-05-09T09:43:22.867Z,103017.84
2024-05-09T09:46:12.994Z,103019.09
2024-05-09T09:49:00.851Z,103018.97
2024-05-09T09:51:49.431Z,103013.66
2024-05-09T09:54:36.662Z,103010.44
2024-05-09T09:57:24.984Z,103004.19
2024-05-09T10:00:17.320Z,103000.97
2024-05-09T10:03:07.926Z,103013.53
2024-05-09T10:05:55.775Z,103008.72
2024-05-09T10:08:43.370Z,103008.09
2024-05-09T10:11:31.687Z,103003.91
2024-05-09T10:14:22.683Z,103003.84
2024-05-09T10:17:09.781Z,102998.00
2024-05-09T10:20:17.901Z,103003.50
2024-05-09T10:23:31.209Z,102997.25
2024-05-09T10:26:18.309Z,102998.66
2024-05-09T10:29:16.558Z,102998.66
2024-05-09T10:32:03.656Z,102995.41
2024-05-09T10:35:07.284Z,102994.22
2024-05-09T10:37:56.283Z,102994.31
2024-05-09T10:40:45.652Z,102991.50
2024-05-09T10:43:33.576Z,102994.44
2024-05-09T10:46:20.757Z,102984.84
2024-05-09T10:49:08.716Z,102985.41
2024-05-09T10:51:55.970Z,102993.13
2024-05-09T10:54:43.170Z,102989.59
2024-05-09T10:57:38.896Z,102986.50
2024-05-09T11:00:36.530Z,102986.66
2024-05-09T11:03:25.111Z,102980.72
2024-05-09T11:06:12.368Z,102978.78
2024-05-09T11:08:59.465Z,102980.75
2024-05-09T11:11:46.667Z,102974.72
2024-05-09T11:14:34.197Z,102983.31
2024-05-09T11:17:21.501Z,102974.50
2024-05-09T11:20:16.608Z,102974.00
2024-05-09T11:23:07.356Z,102971.06
2024-05-09T11:25:56.430Z,102963.78
2024-05-09T11:28:46.646Z,102962.19
2024-05-09T11:31:44.626Z,102957.94
2024-05-09T11:34:31.988Z,102955.34
2024-05-09T11:37:19.693Z,102949.34
2024-05-09T11:40:13.710Z,102944.28
2024-05-09T11:43:08.036Z,102944.88
2024-05-09T11:45:57.581Z,102943.44
2024-05-09T11:48:45.320Z,102941.34
2024-05-09T11:51:32.420Z,102939.75
2024-05-09T11:54:19.479Z,102931.06
2024-05-09T11:57:06.665Z,102925.91
2024-05-09T11:59:53.775Z,102930.78
2024-05-09T12:02:41.512Z,102930.91
2024-05-09T12:05:28.988Z,102927.25
2024-05-09T12:08:16.185Z,102928.47
2024-05-09T12:11:03.817Z,102931.75
2024-05-09T12:13:50.929Z,102917.88
2024-05-09T12:16:38.094Z,102919.97
2024-05-09T12:19:25.486Z,102915.44
2024-05-09T12:22:12.746Z,102916.28
2024-05-09T12:25:00.048Z,102912.50
2024-05-09T12:27:47.363Z,102915.03
2024-05-09T12:30:38.658Z,102914.03
2024-05-09T12:33:27.754Z,102910.16
2024-05-09T12:36:14.932Z,102908.06
2024-05-09T12:39:03.092Z,102907.38
2024-05-09T12:41:50.162Z,102902.22
2024-05-09T12:44:37.203Z,102905.34
2024-05-09T12:47:24.453Z,102904.16
2024-05-09T12:50:21.837Z,102901.72
2024-05-09T12:53:12.351Z,102894.72
2024-05-09T12:56:02.364Z,102896.72
2024-05-09T12:58:51.591Z,102883.94
2024-05-09T13:01:38.662Z,102892.31
2024-05-09T13:04:26.010Z,102898.06
2024-05-09T13:07:13.336Z,102893.03
2024-05-09T13:10:00.680Z,102895.34
2024-05-09T13:12:47.893Z,102892.56
2024-05-09T13:15:35.159Z,102901.47
2024-05-09T13:18:22.324Z,102902.31
2024-05-09T13:21:09.518Z,102892.03
2024-05-09T13:23:56.884Z,102899.66
2024-05-09T13:26:45.453Z,102894.50
2024-05-09T13:29:32.523Z,102894.63
2024-05-09T13:32:19.743Z,102899.75
2024-05-09T13:35:06.912Z,102895.47
2024-05-09T13:37:54.229Z,102894.72
2024-05-09T13:40:41.869Z,102902.59
2024-05-09T13:43:29.236Z,102901.72
2024-05-09T13:46:16.482Z,102891.66
2024-05-09T13:49:03.897Z,102893.66
2024-05-09T13:51:51.106Z,102901.00
2024-05-09T13:54:38.276Z,102892.53
2024-05-09T13:57:25.904Z,102889.13
2024-05-09T14:00:27.014Z,102884.66
2024-05-09T14:03:21.078Z,102874.97
2024-05-09T14:06:11.276Z,102875.47
2024-05-09T14:08:59.994Z,102876.16
2024-05-09T14:11:47.105Z,102880.31
2024-05-09T14:14:34.304Z,102867.72
2024-05-09T14:17:21.567Z,102864.63
2024-05-09T14:20:13.961Z,102861.03
2024-05-09T14:23:01.337Z,102850.13
2024-05-09T14:25:52.098Z,102856.63
2024-05-09T14:28:39.614Z,102851.41
2024-05-09T14:31:26.835Z,102855.88
2024-05-09T14:34:14.346Z,102847.25
2024-05-09T14:37:01.674Z,102854.91
2024-05-09T14:39:48.799Z,102849.75
2024-05-09T14:42:35.969Z,102848.50
2024-05-09T14:45:23.152Z,102843.47
2024-05-09T14:48:11.064Z,102848.31
2024-05-09T14:50:58.366Z,102845.28
2024-05-09T14:53:45.571Z,102841.97
2024-05-09T14:56:33.519Z,102831.75
2024-05-09T14:59:20.727Z,102827.56
2024-05-09T15:02:08.157Z,102828.94
2024-05-09T15:04:55.659Z,102826.38
2024-05-09T15:07:46.022Z,102822.28
2024-05-09T15:10:35.832Z,102812.53
2024-05-09T15:13:25.026Z,102814.72
2024-05-09T15:16:12.391Z,102805.44
2024-05-09T15:18:59.856Z,102814.34
2024-05-09T15:21:47.015Z,102816.47
2024-05-09T15:24:34.135Z,102807.09
2024-05-09T15:27:21.463Z,102807.16
2024-05-09T15:30:10.810Z,102807.63
2024-05-09T15:32:58.204Z,102805.09
2024-05-09T15:35:46.863Z,102800.66
2024-05-09T15:38:34.467Z,102800.16
2024-05-09T15:41:21.929Z,102797.88
2024-05-09T15:44:09.048Z,102798.09
2024-05-09T15:46:56.471Z,102795.03
2024-05-09T15:49:43.701Z,102790.63
2024-05-09T15:52:30.841Z,102780.13
2024-05-09T15:55:18.026Z,102779.50
2024-05-09T15:58:06.181Z,102783.31
2024-05-09T16:00:54.105Z,102780.25
2024-05-09T16:03:41.412Z,102780.28
2024-05-09T16:06:28.749Z,102780.44
2024-05-09T16:09:15.928Z,102774.16
2024-05-09T16:12:03.032Z,102767.56
2024-05-09T16:14:50.832Z,102764.63
2024-05-09T16:17:38.023Z,102758.19
2024-05-09T16:20:34.924Z,102754.91
2024-05-09T16:23:27.421Z,102751.66
2024-05-09T16:26:14.574Z,102751.78
2024-05-09T16:29:01.742Z,102760.13
2024-05-09T16:31:48.784Z,102754.41
2024-05-09T16:34:35.888Z,102754.09
2024-05-09T16:37:24.683Z,102756.22
2024-05-09T16:40:22.018Z,102748.25
2024-05-09T16:43:17.386Z,102747.66
2024-05-09T16:46:05.721Z,102743.19
2024-05-09T16:48:52.953Z,102739.75
2024-05-09T16:51:40.180Z,102750.28
2024-05-09T16:54:27.263Z,102738.50
2024-05-09T16:57:14.451Z,102738.72
2024-05-09T17:00:01.581Z,102740.13
2024-05-09T17:02:48.707Z,102735.13
2024-05-09T17:05:36.484Z,102741.97
2024-05-09T17:08:24.043Z,102739.63
2024-05-09T17:11:13.207Z,102735.59
2024-05-09T17:14:00.407Z,102735.59
2024-05-09T17:16:47.694Z,102746.13
2024-05-09T17:19:34.814Z,102745.97
2024-05-09T17:22:22.228Z,102744.47
2024-05-09T17:25:09.343Z,102746.09
2024-05-09T17:27:56.875Z,102748.69
2024-05-09T17:30:44.306Z,102745.06
2024-05-09T17:33:31.694Z,102742.72
2024-05-09T17:36:19.949Z,102748.31
2024-05-09T17:39:07.076Z,102738.19
2024-05-09T17:41:54.118Z,102734.84
2024-05-09T17:44:41.241Z,102730.34
2024-05-09T17:47:28.540Z,102723.97
2024-05-09T17:50:23.759Z,102734.03
2024-05-09T17:53:14.679Z,102725.59
2024-05-09T17:56:03.816Z,102725.25
2024-05-09T17:58:50.989Z,102722.53
2024-05-09T18:01:38.263Z,102724.16
2024-05-09T18:04:25.537Z,102728.81
2024-05-09T18:07:12.869Z,102726.31
2024-05-09T18:10:00.241Z,102726.00
2024-05-09T18:12:47.511Z,102725.50
2024-05-09T18:15:35.049Z,102723.41
2024-05-09T18:18:23.140Z,102722.44
2024-05-09T18:21:10.333Z,102723.91
2024-05-09T18:24:00.028Z,102724.97
2024-05-09T18:26:47.454Z,102721.56
2024-05-09T18:29:34.597Z,102720.09
2024-05-09T18:32:21.750Z,102719.44
2024-05-09T18:35:09.127Z,102723.31
2024-05-09T18:37:56.426Z,102728.75
2024-05-09T18:40:46.226Z,102723.75
2024-05-09T18:43:42.197Z,102718.38
2024-05-09T18:46:32.602Z,102727.41
2024-05-09T18:49:19.815Z,102722.66
2024-05-09T18:52:07.132Z,102725.53
2024-05-09T18:54:54.227Z,102728.78
2024-05-09T18:57:41.607Z,102724.03
2024-05-09T19:00:35.395Z,102737.00
2024-05-09T19:03:25.965Z,102730.22
2024-05-09T19:06:13.900Z,102734.84
2024-05-09T19:09:01.063Z,102736.81
2024-05-09T19:11:48.272Z,102731.03
2024-05-09T19:14:35.371Z,102739.09
2024-05-09T19:17:22.776Z,102744.34
2024-05-09T19:20:20.513Z,102731.03
2024-05-09T19:23:15.275Z,102731.91
2024-05-09T19:26:03.261Z,102728.91
2024-05-09T19:28:52.066Z,102733.84
2024-05-09T19:31:39.174Z,102736.53
2024-05-09T19:34:26.326Z,102729.53
2024-05-09T19:37:13.651Z,102734.34
2024-05-09T19:40:01.016Z,102724.91
2024-05-09T19:42:48.376Z,102738.31
2024-05-09T19:45:36.553Z,102734.25
2024-05-09T19:48:24.238Z,102737.31
2024-05-09T19:51:11.403Z,102747.78
2024-05-09T19:53:58.555Z,102751.09
2024-05-09T19:56:45.709Z,102752.38
2024-05-09T19:59:33.030Z,102747.19
2024-05-09T20:02:20.419Z,102758.47
2024-05-09T20:05:07.675Z,102757.28
2024-05-09T20:07:54.893Z,102761.91
2024-05-09T20:10:42.150Z,102758.88
2024-05-09T20:13:29.445Z,102758.53
2024-05-09T20:16:16.902Z,102756.88
2024-05-09T20:19:04.334Z,102758.16
2024-05-09T20:21:51.648Z,102748.72
2024-05-09T20:24:38.796Z,102754.41
2024-05-09T20:27:26.067Z,102756.16
2024-05-09T20:30:20.885Z,102755.13
2024-05-09T20:33:14.198Z,102757.22
2024-05-09T20:36:02.487Z,102763.34
2024-05-09T20:38:49.777Z,102756.84
2024-05-09T20:41:42.770Z,102760.41
2024-05-09T20:44:29.836Z,102759.47
2024-05-09T20:47:18.717Z,102763.47
2024-05-09T20:50:11.430Z,102766.94
2024-05-09T20:53:03.956Z,102757.38
2024-05-09T20:55:51.212Z,102761.88
2024-05-09T20:58:38.290Z,102758.25
2024-05-09T21:01:25.497Z,102754.94
2024-05-09T21:04:12.941Z,102754.72
2024-05-09T21:07:00.353Z,102745.47
2024-05-09T21:09:47.878Z,102745.72
2024-05-09T21:12:35.082Z,102751.84
2024-05-09T21:15:22.147Z,102743.81
2024-05-09T21:18:09.408Z,102750.63
2024-05-09T21:20:56.654Z,102751.59
2024-05-09T21:23:44.319Z,102744.13
2024-05-09T21:26:31.436Z,102745.00
2024-05-09T21:29:18.581Z,102738.19
2024-05-09T21:32:05.932Z,102739.34
2024-05-09T21:34:53.165Z,102737.53
2024-05-09T21:37:40.309Z,102734.47
2024-05-09T21:40:33.946Z,102731.31
2024-05-09T21:43:23.005Z,102735.31
2024-05-09T21:46:10.316Z,102743.44
2024-05-09T21:48:58.246Z,102740.59
2024-05-09T21:51:45.394Z,102736.47
2024-05-09T21:54:32.498Z,102733.16
2024-05-09T21:57:19.604Z,102735.72
2024-05-09T22:00:20.367Z,102727.88
2024-05-09T22:03:12.897Z,102738.00
2024-05-09T22:06:00.641Z,102745.38
2024-05-09T22:08:47.757Z,102742.59
2024-05-09T22:11:34.945Z,102735.44
2024-05-09T22:14:22.112Z,102747.75
2024-05-09T22:17:09.356Z,102737.34
2024-05-09T22:19:56.555Z,102743.66
2024-05-09T22:22:43.612Z,102748.31
2024-05-09T22:25:31.720Z,102743.84
2024-05-09T22:28:19.772Z,102744.19
2024-05-09T22:31:08.881Z,102752.31
2024-05-09T22:33:58.808Z,102748.41
2024-05-09T22:36:46.033Z,102743.47
2024-05-09T22:39:33.294Z,102744.91
2024-05-09T22:42:20.461Z,102746.97
2024-05-09T22:45:07.861Z,102749.00
2024-05-09T22:47:55.389Z,102753.00
2024-05-09T22:50:42.607Z,102752.78
2024-05-09T22:53:29.739Z,102740.25
2024-05-09T22:56:26.471Z,102745.03
2024-05-09T22:59:13.599Z,102753.81
2024-05-09T23:02:01.006Z,102744.56
2024-05-09T23:04:48.342Z,102741.13
2024-05-09T23:07:35.456Z,102737.78
2024-05-09T23:10:30.888Z,102749.25
2024-05-09T23:13:22.340Z,102743.03
2024-05-09T23:16:10.229Z,102745.97
2024-05-09T23:18:57.615Z,102744.28
2024-05-09T23:21:44.879Z,102742.94
2024-05-09T23:24:32.599Z,102745.16
2024-05-09T23:27:19.821Z,102747.50
2024-05-09T23:30:12.019Z,102740.91
2024-05-09T23:32:59.654Z,102747.66
2024-05-09T23:35:47.116Z,102738.91
2024-05-09T23:38:34.313Z,102744.38
2024-05-09T23:41:21.420Z,102745.00
2024-05-09T23:44:08.557Z,102731.47
2024-05-09T23:46:55.831Z,102737.16
2024-05-09T23:49:43.248Z,102737.53
2024-05-09T23:52:30.424Z,102731.22
2024-05-09T23:55:17.755Z,102742.53
2024-05-09T23:58:05.807Z,102730.66
